Pine Canyon, Utah
Current Conditions -  °F | °C
As of 1:53 PM on Thursday 27 Nov 2014 (Local Time) from KSLC Reporting Station
Broken Clouds Broken Clouds  
Wind Chill: 57°   Ceiling: 20000
Heat Index: 57°   Visibility: 10mi
Dew Point: 28°   Wind: 5mph
Humidity: 33%   Direction: 130°SE
Pressure: 30.22"   Gusts: NA
Location:  40.5393°N, 112.353°W
Report Text: KSLC 272053Z 13004KT 10SM FEW130 SCT160 BKN200 14/M02 A3022 RMK AO2 SLP216 VIRGA DSNT N ACSL DSNT ALQDS T01391022 56022
Loading
Personal Weather Stations






























Interactive Weather Map New forecast layout! Learn more

10-Day Weather Forecast

Advertisements
Track Severe Weather on mobile